createdAt,value
2023-02-11T00:04:42.572Z,0
2023-02-11T00:09:42.585Z,0
2023-02-11T00:14:42.373Z,0
2023-02-11T00:19:42.286Z,0
2023-02-11T00:24:42.816Z,0
2023-02-11T00:29:42.838Z,0
2023-02-11T00:34:42.479Z,0
2023-02-11T00:39:42.590Z,0
2023-02-11T00:44:42.397Z,0
2023-02-11T00:49:42.470Z,0
2023-02-11T00:54:42.220Z,0
2023-02-11T00:59:42.541Z,0
2023-02-11T01:04:42.300Z,0
2023-02-11T01:09:42.514Z,0
2023-02-11T01:14:42.403Z,0
2023-02-11T01:19:42.234Z,0
2023-02-11T01:24:42.532Z,0
2023-02-11T01:29:42.621Z,0
2023-02-11T01:34:42.258Z,0
2023-02-11T01:39:42.513Z,0
2023-02-11T01:44:42.397Z,0
2023-02-11T01:49:44.395Z,0
2023-02-11T01:54:42.399Z,0
2023-02-11T01:59:42.248Z,0
2023-02-11T02:04:45.669Z,0
2023-02-11T02:09:42.221Z,0
2023-02-11T02:15:10.325Z,0
2023-02-11T02:19:42.370Z,0
2023-02-11T02:24:51.117Z,0
2023-02-11T02:29:56.872Z,0
2023-02-11T02:34:42.230Z,0
2023-02-11T02:39:44.815Z,0
2023-02-11T02:44:42.343Z,0
2023-02-11T02:49:42.061Z,0
2023-02-11T02:54:42.213Z,0
2023-02-11T02:59:45.846Z,0
2023-02-11T03:04:47.241Z,0
2023-02-11T03:09:42.169Z,0
2023-02-11T03:14:43.258Z,0
2023-02-11T03:19:42.382Z,0
2023-02-11T03:24:42.429Z,0
2023-02-11T03:29:42.075Z,0
2023-02-11T03:34:42.135Z,0
2023-02-11T03:39:45.360Z,0
2023-02-11T03:44:42.123Z,0
2023-02-11T03:49:42.619Z,0
2023-02-11T03:54:42.109Z,0
2023-02-11T03:59:42.087Z,0
2023-02-11T04:04:42.327Z,0
2023-02-11T04:09:42.189Z,0
2023-02-11T04:14:42.133Z,0
2023-02-11T04:19:42.189Z,0
2023-02-11T04:24:42.225Z,0
2023-02-11T04:29:42.090Z,0
2023-02-11T04:34:42.169Z,0
2023-02-11T04:39:42.550Z,0
2023-02-11T04:44:42.264Z,0
2023-02-11T04:49:42.027Z,0
2023-02-11T04:54:42.208Z,0
2023-02-11T04:59:42.335Z,0
2023-02-11T05:04:42.320Z,0
2023-02-11T05:09:42.241Z,0
2023-02-11T05:14:41.965Z,0
2023-02-11T05:19:42.336Z,0
2023-02-11T05:24:41.899Z,0
2023-02-11T05:29:42.020Z,0
2023-02-11T05:34:42.251Z,0
2023-02-11T05:39:42.279Z,0
2023-02-11T05:44:42.148Z,0
2023-02-11T05:49:42.446Z,0
2023-02-11T05:54:42.189Z,0
2023-02-11T05:59:42.234Z,0
2023-02-11T06:04:41.917Z,0
2023-02-11T06:09:42.505Z,0
2023-02-11T06:14:42.652Z,0
2023-02-11T06:19:42.078Z,0
2023-02-11T06:25:00.205Z,0
2023-02-11T06:29:42.464Z,0
2023-02-11T06:34:42.066Z,0
2023-02-11T06:39:41.989Z,0
2023-02-11T06:44:42.133Z,0
2023-02-11T06:49:42.189Z,0
2023-02-11T06:54:42.294Z,0
2023-02-11T06:59:42.299Z,0
2023-02-11T07:04:42.105Z,0
2023-02-11T07:09:42.439Z,0.5
2023-02-11T07:14:42.124Z,1.1
2023-02-11T07:19:42.315Z,2
2023-02-11T07:24:42.310Z,3.5
2023-02-11T07:29:42.076Z,4.8
2023-02-11T07:34:42.327Z,6.9
2023-02-11T07:39:42.075Z,8.2
2023-02-11T07:44:42.247Z,9.4
2023-02-11T07:49:42.388Z,10.6
2023-02-11T07:54:42.213Z,12.2
2023-02-11T07:59:42.229Z,14.5
2023-02-11T08:04:42.154Z,16.5
2023-02-11T08:09:41.849Z,17.5
2023-02-11T08:14:41.903Z,17.8
2023-02-11T08:19:42.046Z,19.4
2023-02-11T08:24:41.974Z,22.9
2023-02-11T08:29:41.807Z,26.5
2023-02-11T08:34:42.360Z,27.7
2023-02-11T08:39:41.959Z,31
2023-02-11T08:44:42.123Z,32
2023-02-11T08:49:41.847Z,35.6
2023-02-11T08:54:41.995Z,36.2
2023-02-11T08:59:42.034Z,38.5
2023-02-11T09:04:42.042Z,39.3
2023-02-11T09:09:41.902Z,39.8
2023-02-11T09:14:41.876Z,43
2023-02-11T09:19:42.064Z,43.6
2023-02-11T09:24:42.430Z,45.5
2023-02-11T09:29:41.980Z,44
2023-02-11T09:34:42.266Z,45.2
2023-02-11T09:39:42.091Z,48.2
2023-02-11T09:44:42.216Z,52.3
2023-02-11T09:49:41.921Z,55.3
2023-02-11T09:54:48.505Z,58.1
2023-02-11T09:59:41.724Z,60.1
2023-02-11T10:04:42.056Z,60.9
2023-02-11T10:09:41.908Z,59.9
2023-02-11T10:14:42.022Z,58.9
2023-02-11T10:19:50.225Z,53.1
2023-02-11T10:24:47.536Z,46.8
2023-02-11T10:29:46.930Z,41.9
2023-02-11T10:34:42.190Z,43.5
2023-02-11T10:39:41.826Z,52.2
2023-02-11T10:44:41.881Z,74
2023-02-11T10:49:44.640Z,88.9
2023-02-11T10:54:54.166Z,92.5
2023-02-11T10:59:41.913Z,99.5
2023-02-11T11:04:41.924Z,104.3
2023-02-11T11:09:43.900Z,101
2023-02-11T11:14:41.841Z,97
2023-02-11T11:19:41.920Z,93.2
2023-02-11T11:24:41.939Z,87.9
2023-02-11T11:29:44.188Z,102.5
2023-02-11T11:34:42.809Z,122.8
2023-02-11T11:39:41.886Z,123.9
2023-02-11T11:44:54.666Z,112.3
2023-02-11T11:49:41.823Z,107.8
2023-02-11T11:54:42.449Z,104.4
2023-02-11T11:59:41.779Z,101.4
2023-02-11T12:04:41.756Z,95
2023-02-11T12:09:42.009Z,84.8
2023-02-11T12:14:44.915Z,68.7
2023-02-11T12:19:41.729Z,55.7
2023-02-11T12:24:48.773Z,58.9
2023-02-11T12:29:41.830Z,70.2
2023-02-11T12:34:41.941Z,95.6
2023-02-11T12:39:41.832Z,102.8
2023-02-11T12:44:51.291Z,104
2023-02-11T12:49:51.416Z,104.1
2023-02-11T12:54:41.723Z,114.1
2023-02-11T12:59:46.537Z,122.5
2023-02-11T13:04:41.642Z,135.1
2023-02-11T13:09:44.400Z,133
2023-02-11T13:14:41.699Z,129.3
2023-02-11T13:19:41.581Z,127.1
2023-02-11T13:24:41.660Z,120.7
2023-02-11T13:30:04.124Z,120.4
2023-02-11T13:34:41.597Z,121.6
2023-02-11T13:39:41.753Z,119.6
2023-02-11T13:44:42.024Z,119.2
2023-02-11T13:49:49.059Z,113.8
2023-02-11T13:54:46.716Z,106.8
2023-02-11T13:59:41.855Z,105.1
2023-02-11T14:04:41.679Z,105.7
2023-02-11T14:09:42.279Z,106.3
2023-02-11T14:14:41.826Z,105.3
2023-02-11T14:19:41.666Z,100.6
2023-02-11T14:24:47.199Z,97.1
2023-02-11T14:29:41.768Z,97.2
2023-02-11T14:34:48.561Z,94.6
2023-02-11T14:39:41.556Z,89.1
2023-02-11T14:44:42.227Z,83.9
2023-02-11T14:49:41.894Z,81.3
2023-02-11T14:54:41.578Z,79.4
2023-02-11T14:59:51.535Z,76.4
2023-02-11T15:04:41.875Z,72.9
2023-02-11T15:09:41.749Z,68.8
2023-02-11T15:14:44.712Z,67.6
2023-02-11T15:19:44.210Z,63.2
2023-02-11T15:24:41.870Z,57
2023-02-11T15:29:42.979Z,51.1
2023-02-11T15:34:41.886Z,44.7
2023-02-11T15:39:41.741Z,40.1
2023-02-11T15:44:42.185Z,36.3
2023-02-11T15:49:41.642Z,33.6
2023-02-11T15:54:44.890Z,29.5
2023-02-11T15:59:41.511Z,26
2023-02-11T16:04:41.786Z,23.1
2023-02-11T16:09:41.642Z,19.9
2023-02-11T16:14:41.779Z,17.1
2023-02-11T16:19:41.778Z,14
2023-02-11T16:24:41.663Z,10.6
2023-02-11T16:29:41.659Z,7.6
2023-02-11T16:34:41.537Z,5.6
2023-02-11T16:39:41.513Z,4
2023-02-11T16:44:41.493Z,2.7
2023-02-11T16:49:41.623Z,1.6
2023-02-11T16:54:41.527Z,0.8
2023-02-11T16:59:41.652Z,0.3
2023-02-11T17:04:41.750Z,0.1
2023-02-11T17:09:41.876Z,0
2023-02-11T17:14:41.632Z,0
2023-02-11T17:19:41.916Z,0
2023-02-11T17:24:41.941Z,0
2023-02-11T17:29:41.421Z,0
2023-02-11T17:34:41.757Z,0
2023-02-11T17:39:41.499Z,0
2023-02-11T17:44:42.615Z,0
2023-02-11T17:49:42.328Z,0
2023-02-11T17:54:41.645Z,0
2023-02-11T17:59:41.564Z,0
2023-02-11T18:04:41.872Z,0
2023-02-11T18:09:42.405Z,0
2023-02-11T18:14:41.859Z,0
2023-02-11T18:19:41.459Z,0
2023-02-11T18:24:41.657Z,0
2023-02-11T18:29:41.449Z,0
2023-02-11T18:34:41.611Z,0
2023-02-11T18:39:42.618Z,0
2023-02-11T18:44:41.661Z,0
2023-02-11T18:49:41.568Z,0
2023-02-11T18:54:41.624Z,0
2023-02-11T18:59:41.631Z,0
2023-02-11T19:04:41.582Z,0
2023-02-11T19:09:42.199Z,0
2023-02-11T19:14:41.453Z,0
2023-02-11T19:19:41.666Z,0
2023-02-11T19:24:41.457Z,0
2023-02-11T19:29:41.312Z,0
2023-02-11T19:34:41.865Z,0
2023-02-11T19:39:41.518Z,0
2023-02-11T19:44:41.442Z,0
2023-02-11T19:49:41.392Z,0
2023-02-11T19:54:41.357Z,0
2023-02-11T19:59:41.996Z,0
2023-02-11T20:04:41.589Z,0
2023-02-11T20:09:41.733Z,0
2023-02-11T20:14:41.405Z,0
2023-02-11T20:19:41.279Z,0
2023-02-11T20:24:41.587Z,0
2023-02-11T20:29:41.850Z,0
2023-02-11T20:34:41.297Z,0
2023-02-11T20:39:44.011Z,0
2023-02-11T20:44:41.473Z,0
2023-02-11T20:49:41.259Z,0
2023-02-11T20:54:41.956Z,0
2023-02-11T20:59:41.667Z,0
2023-02-11T21:04:41.897Z,0
2023-02-11T21:09:41.473Z,0
2023-02-11T21:14:41.687Z,0
2023-02-11T21:19:41.785Z,0
2023-02-11T21:24:41.616Z,0
2023-02-11T21:29:53.383Z,0
2023-02-11T21:34:41.293Z,0
2023-02-11T21:39:41.668Z,0
2023-02-11T21:44:41.841Z,0
2023-02-11T21:49:41.397Z,0
2023-02-11T21:54:41.388Z,0
2023-02-11T21:59:41.241Z,0
2023-02-11T22:04:41.519Z,0
2023-02-11T22:09:41.260Z,0
2023-02-11T22:14:41.444Z,0
2023-02-11T22:19:41.468Z,0
2023-02-11T22:24:41.148Z,0
2023-02-11T22:29:41.089Z,0
2023-02-11T22:34:41.689Z,0
2023-02-11T22:39:41.447Z,0
2023-02-11T22:44:41.458Z,0
2023-02-11T22:49:41.578Z,0
2023-02-11T22:54:41.766Z,0
2023-02-11T22:59:41.179Z,0
2023-02-11T23:04:41.505Z,0
2023-02-11T23:09:42.143Z,0
2023-02-11T23:14:41.387Z,0
2023-02-11T23:19:41.703Z,0
2023-02-11T23:24:41.265Z,0
2023-02-11T23:29:41.627Z,0
2023-02-11T23:34:41.358Z,0
2023-02-11T23:39:41.115Z,0
2023-02-11T23:44:41.268Z,0
2023-02-11T23:49:41.379Z,0
2023-02-11T23:54:41.418Z,0
2023-02-11T23:59:43.111Z,0
